Time;durP1;ratioP1;P1;durP2;ratioP2;P2;SDS_P1;SDS_P2;PMS_P1;PMS_P2;Temp;Humidity;BMP_temperature;BMP_pressure;BME280_temperature;BME280_humidity;BME280_pressure;Samples;Min_cycle;Max_cycle;Signal;HPM_P1;HPM_P2
2021/06/25 00:01:22;;;;;;;1.58;0.82;;;21.20;58.00;;;;;;5013668;28;20033;-45
2021/06/25 00:03:47;;;;;;;1.52;0.73;;;21.50;58.20;;;;;;5013796;28;20018;-47
2021/06/25 00:06:13;;;;;;;1.63;1.00;;;21.20;58.10;;;;;;5013695;28;20044;-45
2021/06/25 00:08:39;;;;;;;1.00;0.90;;;21.20;58.00;;;;;;5013647;28;20017;-46
2021/06/25 00:11:04;;;;;;;2.10;1.00;;;21.60;58.30;;;;;;5013665;28;20449;-45
2021/06/25 00:13:30;;;;;;;1.23;0.98;;;21.50;58.20;;;;;;5012051;28;20073;-45
2021/06/25 00:15:56;;;;;;;1.52;0.40;;;21.00;58.00;;;;;;5013518;28;20060;-45
2021/06/25 00:18:21;;;;;;;1.77;1.00;;;21.20;58.10;;;;;;5013183;28;20018;-46
2021/06/25 00:20:47;;;;;;;0.82;0.60;;;21.20;58.00;;;;;;5013174;28;20077;-45
2021/06/25 00:23:12;;;;;;;0.73;0.65;;;21.20;58.10;;;;;;5011935;28;20022;-45
2021/06/25 00:25:38;;;;;;;1.17;0.55;;;21.20;58.10;;;;;;5013277;28;20487;-45
2021/06/25 00:28:04;;;;;;;1.35;1.00;;;21.40;58.20;;;;;;5013414;28;20048;-46
2021/06/25 00:30:30;;;;;;;1.35;0.70;;;21.10;58.10;;;;;;5013074;28;20032;-45
2021/06/25 00:32:55;;;;;;;0.60;0.60;;;21.10;58.20;;;;;;5013386;28;20018;-45
2021/06/25 00:35:21;;;;;;;1.00;0.80;;;21.10;58.30;;;;;;5013043;28;20057;-45
2021/06/25 00:37:46;;;;;;;0.70;0.70;;;21.10;58.30;;;;;;5013250;28;20154;-45
2021/06/25 00:40:13;;;;;;;1.85;1.00;;;21.40;58.20;;;;;;5012912;28;20045;-45
2021/06/25 00:42:38;;;;;;;1.20;0.75;;;21.10;58.10;;;;;;5012892;28;20096;-45
2021/06/25 00:45:18;;;;;;;1.80;1.10;;;21.10;58.10;;;;;;5013038;28;20086;-45
2021/06/25 00:47:45;;;;;;;0.82;0.75;;;21.10;58.10;;;;;;5012860;28;20033;-45
2021/06/25 00:50:14;;;;;;;1.30;1.20;;;21.50;58.40;;;;;;5012176;28;20029;-46
2021/06/25 00:52:39;;;;;;;0.90;0.85;;;21.10;58.20;;;;;;5013034;28;20064;-46
2021/06/25 00:55:06;;;;;;;1.13;0.82;;;21.10;58.40;;;;;;5013081;28;20029;-46
2021/06/25 00:57:31;;;;;;;1.15;0.82;;;21.10;58.20;;;;;;5013064;28;20033;-47
2021/06/25 00:59:57;;;;;;;1.30;1.10;;;21.00;57.50;;;;;;5012750;28;20034;-46
2021/06/25 01:02:23;;;;;;;1.05;0.95;;;21.20;58.10;;;;;;5013013;28;20022;-46
2021/06/25 01:04:52;;;;;;;0.75;0.75;;;21.50;58.30;;;;;;5012993;28;20057;-47
2021/06/25 01:07:18;;;;;;;1.25;1.02;;;21.10;58.10;;;;;;5013025;28;20025;-47
2021/06/25 01:09:44;;;;;;;1.38;1.00;;;21.00;58.00;;;;;;5012965;28;20100;-45
2021/06/25 01:12:11;;;;;;;1.02;0.77;;;21.10;58.20;;;;;;5012691;28;20022;-45
2021/06/25 01:14:39;;;;;;;1.00;0.90;;;21.00;58.10;;;;;;5012601;28;20022;-45
2021/06/25 01:17:06;;;;;;;1.73;1.00;;;21.10;58.10;;;;;;5012880;28;20022;-46
2021/06/25 01:19:32;;;;;;;1.00;0.90;;;21.00;58.10;;;;;;5012805;28;20038;-47
2021/06/25 01:21:58;;;;;;;0.80;0.80;;;21.30;58.20;;;;;;5012906;28;20105;-45
2021/06/25 01:24:24;;;;;;;1.23;0.95;;;21.40;58.30;;;;;;5012963;28;20121;-46
2021/06/25 01:26:49;;;;;;;1.42;0.80;;;21.00;58.10;;;;;;5012807;28;20076;-45
2021/06/25 01:29:15;;;;;;;1.67;1.00;;;21.00;58.10;;;;;;5012666;28;20488;-45
2021/06/25 01:31:41;;;;;;;1.35;0.80;;;21.10;58.30;;;;;;5012556;28;20468;-47
2021/06/25 01:34:07;;;;;;;2.75;1.08;;;21.00;58.20;;;;;;5012708;28;20026;-46
2021/06/25 01:36:34;;;;;;;1.23;1.02;;;21.00;58.10;;;;;;5012738;28;20141;-44
2021/06/25 01:39:01;;;;;;;1.13;1.02;;;21.20;58.20;;;;;;5012581;28;20026;-45
2021/06/25 01:41:27;;;;;;;1.20;0.93;;;21.00;58.10;;;;;;5012693;28;20447;-44
2021/06/25 01:43:54;;;;;;;1.67;1.10;;;20.80;58.10;;;;;;5012389;28;20053;-45
2021/06/25 01:46:20;;;;;;;1.48;1.02;;;21.00;58.20;;;;;;5012162;28;20479;-45
2021/06/25 01:48:46;;;;;;;3.17;1.10;;;20.90;58.20;;;;;;5012615;28;20019;-45
2021/06/25 01:51:11;;;;;;;1.20;0.82;;;21.40;58.40;;;;;;5012553;28;20022;-45
2021/06/25 01:53:37;;;;;;;1.20;1.10;;;20.90;58.10;;;;;;5012537;28;20018;-45
2021/06/25 01:56:04;;;;;;;1.15;0.95;;;20.90;58.10;;;;;;5012506;28;20018;-45
2021/06/25 01:58:30;;;;;;;2.40;1.40;;;20.90;58.20;;;;;;5012016;28;20091;-45
2021/06/25 02:01:16;;;;;;;2.15;1.50;;;21.00;58.20;;;;;;5012723;28;20083;-45
2021/06/25 02:03:44;;;;;;;1.38;1.10;;;20.70;58.10;;;;;;5015950;28;20030;-45
2021/06/25 02:06:12;;;;;;;1.35;1.25;;;20.90;58.20;;;;;;5015637;28;20580;-45
2021/06/25 02:08:41;;;;;;;1.45;1.15;;;21.00;58.20;;;;;;5015903;28;20029;-45
2021/06/25 02:11:11;;;;;;;1.35;1.25;;;21.20;58.30;;;;;;5015824;28;20101;-45
2021/06/25 02:13:38;;;;;;;1.15;0.90;;;20.90;58.20;;;;;;5015581;28;20021;-45
2021/06/25 02:16:04;;;;;;;1.08;1.08;;;20.90;58.20;;;;;;5015790;28;20391;-46
2021/06/25 02:18:29;;;;;;;1.20;1.10;;;20.90;58.20;;;;;;5015582;28;20108;-47
2021/06/25 02:20:55;;;;;;;1.20;1.05;;;20.90;58.20;;;;;;5015289;28;20543;-45
2021/06/25 02:23:20;;;;;;;2.08;1.17;;;20.90;58.20;;;;;;5015736;28;20032;-46
2021/06/25 02:25:46;;;;;;;1.15;1.02;;;21.10;58.40;;;;;;5015336;28;20033;-46
2021/06/25 02:28:12;;;;;;;0.95;0.95;;;21.00;58.20;;;;;;5015540;28;20088;-46
2021/06/25 02:30:37;;;;;;;1.38;1.08;;;21.10;58.30;;;;;;5015570;28;20403;-46
2021/06/25 02:33:04;;;;;;;1.67;1.00;;;20.80;58.20;;;;;;5015196;28;20025;-46
2021/06/25 02:35:30;;;;;;;1.65;1.00;;;20.90;58.20;;;;;;5015469;28;20108;-45
2021/06/25 02:37:56;;;;;;;0.98;0.90;;;20.70;58.10;;;;;;5015472;28;20120;-45
2021/06/25 02:40:24;;;;;;;1.40;1.10;;;20.90;58.20;;;;;;5015267;28;20453;-45
2021/06/25 02:42:49;;;;;;;1.40;1.15;;;21.00;58.30;;;;;;5015102;28;20037;-46
2021/06/25 02:45:19;;;;;;;1.05;0.95;;;21.20;58.40;;;;;;5015078;28;20026;-45
2021/06/25 02:47:45;;;;;;;1.48;1.02;;;20.90;58.20;;;;;;5014956;28;20489;-45
2021/06/25 02:50:11;;;;;;;1.30;1.20;;;21.10;58.30;;;;;;5014870;28;20101;-46
2021/06/25 02:52:39;;;;;;;1.02;0.90;;;20.80;58.20;;;;;;5015050;28;20034;-45
2021/06/25 02:55:05;;;;;;;1.42;1.30;;;20.60;58.10;;;;;;5015053;28;20030;-46
2021/06/25 02:57:31;;;;;;;2.13;1.42;;;20.80;58.20;;;;;;5014999;28;20029;-45
2021/06/25 02:59:57;;;;;;;1.55;0.90;;;20.80;58.10;;;;;;5014910;28;20045;-45
2021/06/25 03:02:22;;;;;;;1.27;1.20;;;21.30;58.40;;;;;;5014740;28;20033;-46
2021/06/25 03:04:48;;;;;;;3.22;1.17;;;20.70;58.10;;;;;;5014688;28;20021;-46
2021/06/25 03:07:13;;;;;;;1.42;0.90;;;21.10;58.30;;;;;;5014605;28;20097;-46
2021/06/25 03:09:39;;;;;;;0.90;0.90;;;20.80;58.20;;;;;;5014570;28;20033;-45
2021/06/25 03:12:05;;;;;;;2.30;1.40;;;21.00;58.30;;;;;;5014376;28;20029;-46
2021/06/25 03:14:31;;;;;;;1.17;1.08;;;20.80;58.10;;;;;;5013804;28;20030;-45
2021/06/25 03:16:57;;;;;;;1.55;0.77;;;20.80;58.10;;;;;;5013232;28;20081;-45
2021/06/25 03:19:22;;;;;;;2.65;1.10;;;20.80;58.20;;;;;;5014577;28;20084;-46
2021/06/25 03:21:48;;;;;;;1.45;1.10;;;20.90;58.20;;;;;;5014241;28;20388;-45
2021/06/25 03:24:13;;;;;;;0.93;0.80;;;20.80;58.20;;;;;;5014498;28;20112;-45
2021/06/25 03:26:39;;;;;;;2.00;1.50;;;20.90;58.20;;;;;;5014252;28;20060;-45
2021/06/25 03:29:05;;;;;;;1.23;1.13;;;20.50;58.10;;;;;;5014476;28;20117;-46
2021/06/25 03:31:31;;;;;;;1.38;1.23;;;20.80;58.20;;;;;;5014155;28;20515;-46
2021/06/25 03:33:56;;;;;;;1.63;1.52;;;20.70;58.10;;;;;;5014401;28;20116;-46
2021/06/25 03:36:22;;;;;;;2.20;1.50;;;20.80;58.30;;;;;;5014257;28;20018;-45
2021/06/25 03:38:47;;;;;;;2.75;1.25;;;20.80;58.20;;;;;;5013917;28;20056;-45
2021/06/25 03:41:14;;;;;;;1.60;1.10;;;20.80;58.10;;;;;;5014186;28;20026;-45
2021/06/25 03:43:39;;;;;;;2.05;1.23;;;21.10;58.30;;;;;;5013882;28;20160;-45
2021/06/25 03:46:05;;;;;;;1.38;1.27;;;20.70;58.10;;;;;;5013557;28;20081;-46
2021/06/25 03:48:30;;;;;;;1.75;1.20;;;20.60;58.00;;;;;;5013791;28;20030;-45
2021/06/25 03:50:56;;;;;;;1.40;1.30;;;21.00;58.20;;;;;;5013754;28;20072;-45
2021/06/25 03:53:22;;;;;;;1.25;0.85;;;21.00;58.20;;;;;;5013995;28;20028;-45
2021/06/25 03:58:31;;;;;;;1.08;1.05;;;20.70;58.70;;;;;;5013873;28;20514;-46
2021/06/25 04:00:57;;;;;;;1.50;1.38;;;21.00;58.20;;;;;;5013563;28;20025;-45
2021/06/25 04:03:22;;;;;;;2.13;1.50;;;20.70;58.00;;;;;;5013844;28;20014;-45
2021/06/25 04:05:49;;;;;;;3.42;1.30;;;20.70;58.10;;;;;;5013663;28;20033;-45
2021/06/25 04:08:15;;;;;;;2.35;1.50;;;20.50;58.00;;;;;;5013728;28;20030;-46
2021/06/25 04:10:42;;;;;;;1.27;1.15;;;20.70;58.10;;;;;;5013370;28;20035;-46
2021/06/25 04:13:08;;;;;;;3.20;1.35;;;20.70;58.10;;;;;;5012567;28;20121;-48
2021/06/25 04:15:33;;;;;;;1.63;1.42;;;20.70;58.10;;;;;;5013404;28;20091;-46
2021/06/25 04:17:59;;;;;;;3.15;1.52;;;20.90;58.30;;;;;;5013638;28;20026;-47
2021/06/25 04:20:24;;;;;;;1.50;1.30;;;20.50;58.00;;;;;;5013585;28;20076;-46
2021/06/25 04:22:50;;;;;;;1.98;1.38;;;20.80;58.20;;;;;;5013526;28;20465;-45
2021/06/25 04:25:16;;;;;;;1.25;1.13;;;20.70;58.10;;;;;;5012535;28;20350;-46
2021/06/25 04:27:41;;;;;;;1.73;1.40;;;20.70;58.10;;;;;;5013450;28;20022;-45
2021/06/25 04:30:10;;;;;;;1.60;1.50;;;20.70;58.10;;;;;;5013160;28;20554;-45
2021/06/25 04:32:36;;;;;;;2.47;1.50;;;20.70;58.10;;;;;;5013434;28;20042;-45
2021/06/25 04:35:02;;;;;;;2.40;1.80;;;20.70;58.20;;;;;;5013073;28;20107;-45
2021/06/25 04:37:27;;;;;;;1.63;1.40;;;20.60;78.60;;;;;;5013369;28;20022;-45
2021/06/25 04:39:53;;;;;;;1.83;1.40;;;20.60;58.10;;;;;;5012945;28;20037;-45
2021/06/25 04:42:18;;;;;;;1.83;1.73;;;20.60;58.10;;;;;;5012944;28;20030;-45
2021/06/25 04:44:44;;;;;;;1.75;1.52;;;20.60;58.10;;;;;;5013106;28;20018;-46
2021/06/25 04:47:09;;;;;;;2.67;2.00;;;20.80;58.30;;;;;;5012804;28;20121;-45
2021/06/25 04:49:38;;;;;;;2.30;2.10;;;20.70;58.20;;;;;;5013193;28;20036;-45
2021/06/25 04:52:06;;;;;;;2.03;1.77;;;20.90;58.30;;;;;;5012696;28;20393;-45
2021/06/25 04:54:31;;;;;;;2.53;2.00;;;20.70;58.30;;;;;;5012857;28;20358;-45
2021/06/25 04:56:57;;;;;;;2.17;1.98;;;20.50;58.20;;;;;;5012859;28;20105;-45
2021/06/25 04:59:23;;;;;;;1.60;1.50;;;20.60;58.20;;;;;;5012703;28;20096;-45
2021/06/25 05:01:48;;;;;;;2.60;2.40;;;20.60;58.20;;;;;;5012810;28;20037;-46
2021/06/25 05:04:14;;;;;;;2.17;1.98;;;20.70;58.30;;;;;;5013007;28;20526;-46
2021/06/25 05:06:39;;;;;;;2.58;1.52;;;20.90;58.40;;;;;;5013079;28;20026;-45
2021/06/25 05:09:05;;;;;;;3.85;2.30;;;20.50;58.20;;;;;;5013023;28;20018;-46
2021/06/25 05:11:30;;;;;;;1.98;1.40;;;20.50;58.20;;;;;;5012692;28;20034;-45
2021/06/25 05:13:56;;;;;;;1.67;1.50;;;20.70;58.30;;;;;;5012686;28;20033;-44
2021/06/25 05:16:22;;;;;;;5.15;1.80;;;20.60;58.50;;;;;;5012580;28;20029;-45
2021/06/25 05:18:48;;;;;;;4.93;2.55;;;20.60;58.50;;;;;;5012785;28;20029;-44
2021/06/25 05:21:13;;;;;;;3.20;2.30;;;20.90;58.80;;;;;;5012476;28;20026;-44
2021/06/25 05:23:39;;;;;;;2.47;2.13;;;20.40;58.40;;;;;;5012561;28;20036;-44
2021/06/25 05:26:05;;;;;;;3.13;2.85;;;20.60;58.50;;;;;;5012453;28;20045;-45
2021/06/25 05:28:30;;;;;;;2.47;2.00;;;20.90;58.70;;;;;;5012761;28;20018;-44
2021/06/25 05:30:56;;;;;;;1.90;1.77;;;20.50;58.70;;;;;;5012723;28;20037;-45
2021/06/25 05:33:22;;;;;;;6.55;2.55;;;20.60;58.70;;;;;;5012455;28;20032;-44
2021/06/25 05:35:48;;;;;;;2.40;2.20;;;20.60;58.80;;;;;;5012878;28;20075;-44
2021/06/25 05:38:14;;;;;;;2.50;2.10;;;20.60;58.90;;;;;;5016268;28;20060;-46
2021/06/25 05:40:41;;;;;;;2.65;1.77;;;20.60;59.30;;;;;;5016182;28;20026;-45
2021/06/25 05:43:08;;;;;;;4.50;2.63;;;20.60;59.30;;;;;;5016383;28;20033;-45
2021/06/25 05:45:34;;;;;;;3.83;3.08;;;20.60;59.20;;;;;;5014991;28;20038;-45
2021/06/25 05:48:01;;;;;;;6.28;2.40;;;20.60;59.10;;;;;;5016304;28;20041;-45
2021/06/25 05:50:27;;;;;;;2.85;2.10;;;20.60;59.40;;;;;;5016291;28;20026;-45
2021/06/25 05:52:53;;;;;;;3.20;2.10;;;20.60;59.30;;;;;;5016034;28;20028;-45
2021/06/25 05:55:19;;;;;;;8.27;2.72;;;20.70;59.50;;;;;;5016150;28;20029;-45
2021/06/25 05:57:47;;;;;;;3.20;1.77;;;20.40;59.10;;;;;;5016276;28;20057;-45
2021/06/25 06:00:13;;;;;;;3.50;2.53;;;20.50;59.20;;;;;;5016146;28;20465;-45
2021/06/25 06:02:39;;;;;;;5.85;2.63;;;20.60;59.20;;;;;;5014508;28;20530;-45
2021/06/25 06:05:05;;;;;;;4.00;2.53;;;20.70;59.30;;;;;;5015853;28;20109;-45
2021/06/25 06:07:31;;;;;;;5.30;3.13;;;20.60;59.30;;;;;;5015762;28;20025;-46
2021/06/25 06:09:56;;;;;;;7.55;3.47;;;20.50;59.20;;;;;;5016091;28;20026;-46
2021/06/25 06:12:22;;;;;;;6.45;3.80;;;20.70;59.40;;;;;;5016127;28;20020;-45
2021/06/25 06:14:48;;;;;;;6.45;3.50;;;20.50;59.40;;;;;;5014507;28;20374;-45
2021/06/25 06:17:17;;;;;;;8.07;3.70;;;20.40;59.10;;;;;;5015513;28;20026;-45
2021/06/25 06:19:46;;;;;;;6.88;3.60;;;20.60;59.20;;;;;;5015885;28;20408;-46
2021/06/25 06:33:14;;;;;;;4.95;2.50;;;20.60;59.40;;;;;;5015378;28;20088;-45
2021/06/25 06:35:40;;;;;;;4.65;2.47;;;20.60;59.50;;;;;;5015208;28;20030;-46
2021/06/25 06:38:06;;;;;;;3.65;3.05;;;20.70;59.50;;;;;;5015427;28;20018;-44
2021/06/25 06:40:32;;;;;;;4.32;3.03;;;20.50;59.30;;;;;;5015343;28;20038;-46
2021/06/25 06:42:58;;;;;;;6.97;3.42;;;20.60;59.30;;;;;;5015002;28;20020;-44
2021/06/25 06:45:24;;;;;;;5.45;3.65;;;20.90;59.40;;;;;;5014650;28;20042;-44
2021/06/25 06:47:50;;;;;;;6.22;3.45;;;20.60;59.20;;;;;;5014012;28;20096;-44
2021/06/25 06:50:16;;;;;;;5.25;2.95;;;20.70;60.00;;;;;;5015079;28;20018;-44
2021/06/25 06:52:47;;;;;;;3.88;2.65;;;20.90;59.30;;;;;;5015268;28;20021;-44
2021/06/25 06:55:16;;;;;;;3.83;3.15;;;20.60;59.20;;;;;;5015394;28;20026;-44
2021/06/25 06:57:42;;;;;;;2.95;2.70;;;20.70;59.20;;;;;;5015004;28;20029;-44
2021/06/25 07:00:08;;;;;;;3.85;2.80;;;20.90;80.80;;;;;;5015203;28;20046;-44
2021/06/25 07:02:37;;;;;;;3.55;3.10;;;20.70;59.80;;;;;;5014858;28;20076;-45
2021/06/25 07:05:03;;;;;;;3.30;2.97;;;20.70;59.80;;;;;;5015132;28;20468;-46
2021/06/25 07:07:29;;;;;;;5.95;3.20;;;20.70;59.90;;;;;;5015069;28;20022;-45
2021/06/25 07:09:54;;;;;;;3.65;2.80;;;20.50;59.80;;;;;;5014994;28;20376;-44
2021/06/25 07:12:20;;;;;;;3.75;3.00;;;20.70;59.80;;;;;;5014975;28;20022;-45
2021/06/25 07:14:46;;;;;;;3.67;2.72;;;20.50;59.50;;;;;;5014554;28;20028;-44
2021/06/25 07:17:11;;;;;;;4.18;2.67;;;20.70;59.50;;;;;;5014481;28;20025;-45
2021/06/25 07:19:37;;;;;;;2.78;2.28;;;20.50;60.40;;;;;;5014817;28;20129;-45
2021/06/25 07:22:02;;;;;;;3.53;2.70;;;20.70;60.10;;;;;;5014749;28;20360;-45
2021/06/25 07:24:28;;;;;;;3.20;2.90;;;20.70;60.10;;;;;;5014764;28;20026;-45
2021/06/25 07:26:54;;;;;;;5.72;2.85;;;20.80;60.10;;;;;;5013294;28;20092;-47
2021/06/25 07:29:19;;;;;;;4.03;2.63;;;20.60;59.90;;;;;;5014328;28;20117;-45
2021/06/25 07:31:45;;;;;;;3.35;2.95;;;20.70;59.80;;;;;;5014590;28;20025;-45
2021/06/25 07:34:11;;;;;;;5.93;3.58;;;20.70;59.60;;;;;;5014592;28;20108;-45
2021/06/25 07:36:36;;;;;;;6.30;3.50;;;20.70;59.60;;;;;;5014537;28;20469;-45
2021/06/25 07:39:02;;;;;;;4.30;3.40;;;20.50;59.50;;;;;;5014030;28;20041;-47
2021/06/25 07:41:28;;;;;;;5.13;3.90;;;20.80;59.70;;;;;;5014611;28;20101;-45
2021/06/25 07:43:53;;;;;;;5.20;3.72;;;20.80;79.90;;;;;;5014077;28;20061;-45
2021/06/25 07:46:19;;;;;;;6.53;3.28;;;20.60;59.40;;;;;;5013926;28;20061;-45
2021/06/25 07:48:45;;;;;;;5.68;3.22;;;21.10;59.80;;;;;;5013033;28;20073;-45
2021/06/25 07:51:10;;;;;;;5.30;3.72;;;20.70;59.40;;;;;;5014186;28;20465;-44
2021/06/25 07:53:36;;;;;;;5.07;3.67;;;21.00;59.60;;;;;;5014211;28;20465;-44
2021/06/25 07:56:01;;;;;;;5.38;3.03;;;20.60;59.40;;;;;;5013898;28;20145;-45
2021/06/25 07:58:27;;;;;;;4.22;3.45;;;20.90;59.50;;;;;;5013965;28;20346;-44
2021/06/25 08:00:52;;;;;;;7.00;3.45;;;20.80;59.50;;;;;;5013536;28;20029;-44
2021/06/25 08:03:18;;;;;;;5.65;3.90;;;20.80;59.50;;;;;;5013923;28;20029;-44
2021/06/25 08:05:44;;;;;;;3.65;3.25;;;20.80;59.60;;;;;;5013784;28;20030;-44
2021/06/25 08:08:09;;;;;;;7.55;3.80;;;21.10;59.70;;;;;;5013949;28;20045;-45
2021/06/25 08:10:35;;;;;;;4.88;3.47;;;20.70;59.50;;;;;;5013911;28;20021;-44
2021/06/25 08:13:01;;;;;;;4.65;3.70;;;20.80;59.70;;;;;;5013916;28;20033;-44
2021/06/25 08:15:26;;;;;;;5.07;3.70;;;20.70;59.70;;;;;;5013727;28;20025;-45
2021/06/25 08:17:52;;;;;;;4.20;3.53;;;20.80;59.90;;;;;;5013662;28;20087;-45
2021/06/25 08:20:18;;;;;;;4.22;3.83;;;20.60;59.80;;;;;;5013574;28;20034;-44
2021/06/25 08:22:43;;;;;;;5.07;3.25;;;20.90;59.80;;;;;;5013411;28;20433;-45
2021/06/25 08:25:09;;;;;;;5.00;4.18;;;20.90;59.80;;;;;;5013308;28;20092;-45
2021/06/25 08:27:35;;;;;;;5.10;3.83;;;20.90;60.00;;;;;;5013589;28;20018;-44
2021/06/25 08:30:02;;;;;;;3.85;3.30;;;20.90;60.10;;;;;;5013553;28;20435;-44
2021/06/25 08:32:28;;;;;;;3.80;3.50;;;20.80;60.00;;;;;;5013485;28;20362;-46
2021/06/25 08:34:54;;;;;;;4.43;3.72;;;21.00;60.00;;;;;;5011964;28;20017;-44
2021/06/25 08:37:19;;;;;;;4.47;3.75;;;20.90;60.10;;;;;;5013443;28;20022;-45
2021/06/25 08:39:45;;;;;;;5.60;3.90;;;21.20;60.20;;;;;;5013143;28;20042;-44
2021/06/25 08:42:12;;;;;;;4.13;3.60;;;20.60;59.90;;;;;;5013299;28;20022;-45
2021/06/25 08:44:39;;;;;;;5.63;3.85;;;20.90;60.10;;;;;;5013274;28;20374;-46
2021/06/25 08:47:06;;;;;;;3.90;3.60;;;21.00;60.30;;;;;;5013001;28;20049;-44
2021/06/25 08:49:34;;;;;;;5.28;4.03;;;20.90;60.30;;;;;;5013052;28;20496;-46
2021/06/25 08:52:01;;;;;;;3.92;3.60;;;20.90;80.80;;;;;;5013233;28;20383;-45
2021/06/25 08:54:26;;;;;;;4.57;4.15;;;20.90;60.30;;;;;;5013024;28;20084;-45
2021/06/25 08:56:52;;;;;;;4.18;3.30;;;21.00;60.30;;;;;;5012526;28;20026;-45
2021/06/25 08:59:19;;;;;;;4.10;3.75;;;20.60;60.00;;;;;;5012949;28;20120;-46
2021/06/25 09:01:47;;;;;;;5.15;3.72;;;20.90;60.20;;;;;;5012992;28;20026;-44
2021/06/25 09:04:33;;;;;;;4.25;3.70;;;21.00;60.30;;;;;;5012735;28;20029;-46
2021/06/25 09:06:59;;;;;;;4.55;4.15;;;20.90;60.30;;;;;;5013191;28;20026;-44
2021/06/25 09:09:39;;;;;;;3.97;3.10;;;20.90;60.40;;;;;;5012814;28;20018;-44
2021/06/25 09:12:22;;;;;;;4.55;3.90;;;21.10;60.50;;;;;;5015461;28;20025;-44
2021/06/25 09:14:55;;;;;;;4.72;4.10;;;21.00;60.60;;;;;;5017217;28;20047;-44
2021/06/25 09:17:21;;;;;;;4.30;3.90;;;21.00;60.60;;;;;;5017123;28;20022;-44
2021/06/25 09:19:47;;;;;;;4.70;3.95;;;20.90;60.50;;;;;;5016817;28;20025;-44
2021/06/25 09:22:12;;;;;;;4.53;3.92;;;20.90;60.40;;;;;;5017068;28;20018;-44
2021/06/25 09:24:38;;;;;;;4.97;4.47;;;20.90;60.30;;;;;;5016713;28;20480;-44
2021/06/25 09:27:06;;;;;;;4.78;4.00;;;20.90;60.20;;;;;;5016888;28;20025;-45
2021/06/25 09:29:35;;;;;;;7.13;5.60;;;20.90;60.20;;;;;;5016482;28;20116;-44
2021/06/25 09:32:07;;;;;;;7.03;4.28;;;20.70;60.10;;;;;;5016579;28;20069;-44
2021/06/25 09:34:50;;;;;;;5.18;4.63;;;20.90;60.40;;;;;;5016516;28;20053;-44
2021/06/25 09:37:18;;;;;;;5.78;5.18;;;21.00;60.50;;;;;;5016852;28;20030;-44
2021/06/25 09:40:02;;;;;;;5.63;5.13;;;21.30;60.60;;;;;;5015106;28;20025;-45
2021/06/25 09:42:28;;;;;;;6.57;5.85;;;20.90;60.20;;;;;;5016776;28;20022;-44
2021/06/25 09:45:05;;;;;;;6.32;4.90;;;20.90;60.20;;;;;;5016275;28;20022;-46
2021/06/25 09:47:39;;;;;;;7.97;6.20;;;20.90;60.20;;;;;;5014140;28;20037;-45
2021/06/25 09:50:06;;;;;;;7.57;5.68;;;20.90;60.30;;;;;;5016797;28;20168;-44
2021/06/25 09:52:46;;;;;;;7.35;5.80;;;20.90;60.30;;;;;;5016806;28;20025;-45
2021/06/25 09:55:12;;;;;;;6.07;5.45;;;20.80;60.20;;;;;;5016527;28;20033;-45
2021/06/25 10:03:49;;;;;;;7.18;5.47;;;20.90;60.40;;;;;;5016448;28;20523;-46
2021/06/25 10:06:26;;;;;;;7.30;5.90;;;20.90;60.40;;;;;;5016193;28;20052;-45
2021/06/25 10:08:53;;;;;;;6.78;5.18;;;21.00;60.50;;;;;;5015758;28;20029;-45
2021/06/25 10:11:22;;;;;;;7.07;5.90;;;20.80;60.50;;;;;;5015746;28;20132;-46
2021/06/25 10:13:50;;;;;;;6.93;5.57;;;21.20;60.70;;;;;;5016382;28;20014;-45
2021/06/25 10:16:16;;;;;;;9.15;6.10;;;21.30;60.70;;;;;;5015650;28;20453;-45
2021/06/25 10:18:58;;;;;;;8.40;5.93;;;21.00;60.60;;;;;;5015308;28;20049;-45
2021/06/25 10:21:28;;;;;;;7.07;5.20;;;21.00;60.50;;;;;;5016064;28;20022;-46
2021/06/25 10:23:56;;;;;;;12.52;5.93;;;20.80;60.40;;;;;;5015615;28;20438;-45
2021/06/25 10:26:23;;;;;;;6.82;5.15;;;21.00;60.60;;;;;;5015418;28;20029;-45
2021/06/25 10:28:50;;;;;;;6.85;4.72;;;21.30;60.80;;;;;;5015616;28;20040;-45
2021/06/25 10:31:18;;;;;;;8.15;5.93;;;21.10;60.70;;;;;;5015630;28;20076;-47
2021/06/25 10:33:44;;;;;;;8.05;5.88;;;21.00;60.60;;;;;;5015441;28;20064;-45
2021/06/25 10:36:12;;;;;;;10.68;5.93;;;21.00;60.60;;;;;;5015583;28;20026;-45
2021/06/25 10:38:39;;;;;;;7.38;5.75;;;21.00;60.60;;;;;;5015562;28;20033;-45
2021/06/25 10:41:07;;;;;;;6.70;5.20;;;20.90;60.90;;;;;;5015694;28;20042;-46
2021/06/25 10:43:40;;;;;;;8.18;5.38;;;21.00;81.40;;;;;;5015209;28;20444;-45
2021/06/25 10:46:06;;;;;;;7.18;5.60;;;21.30;61.30;;;;;;5015075;28;20087;-44
2021/06/25 10:48:39;;;;;;;7.65;5.63;;;21.00;61.00;;;;;;5013859;28;20026;-46
2021/06/25 10:51:33;;;;;;;6.00;5.25;;;20.90;61.00;;;;;;5015347;28;20449;-45
2021/06/25 10:54:15;;;;;;;9.10;5.63;;;21.00;61.00;;;;;;5015396;28;20105;-45
2021/06/25 10:56:50;;;;;;;5.90;5.20;;;20.90;61.10;;;;;;5015196;28;20117;-46
2021/06/25 10:59:29;;;;;;;9.93;6.13;;;20.70;61.10;;;;;;5015080;28;20022;-47
2021/06/25 11:02:04;;;;;;;8.35;5.78;;;20.90;61.10;;;;;;5014810;28;20040;-46
2021/06/25 11:04:38;;;;;;;6.30;5.38;;;20.90;61.10;;;;;;5014851;28;20030;-48
2021/06/25 11:07:16;;;;;;;9.18;5.93;;;20.90;61.20;;;;;;5014831;28;20030;-47
2021/06/25 11:09:52;;;;;;;6.90;5.88;;;21.30;61.50;;;;;;5015013;28;20372;-47
2021/06/25 11:12:45;;;;;;;10.00;7.28;;;21.20;62.10;;;;;;5014933;28;20099;-46
2021/06/25 11:15:11;;;;;;;7.72;5.68;;;20.90;61.20;;;;;;5010721;28;20060;-45
2021/06/25 11:17:59;;;;;;;7.28;6.07;;;20.70;61.20;;;;;;5015095;28;20529;-45
2021/06/25 11:20:36;;;;;;;7.97;5.47;;;20.90;61.40;;;;;;5014543;28;20040;-46
2021/06/25 11:23:06;;;;;;;8.00;6.35;;;20.90;61.60;;;;;;5014801;28;20280;-45
2021/06/25 11:25:57;;;;;;;8.65;6.30;;;20.90;61.50;;;;;;5013049;28;20037;-45
2021/06/25 11:28:38;;;;;;;10.13;6.50;;;20.90;61.50;;;;;;5014739;28;20026;-45
2021/06/25 11:31:25;;;;;;;9.45;6.40;;;20.90;61.50;;;;;;5014094;28;20030;-44
2021/06/25 11:34:04;;;;;;;9.73;6.40;;;20.90;61.50;;;;;;5012492;28;20064;-44
2021/06/25 11:36:56;;;;;;;12.80;8.05;;;20.90;61.50;;;;;;5014403;28;20161;-46
2021/06/25 11:39:35;;;;;;;11.05;6.88;;;20.90;61.60;;;;;;5010315;28;20117;-46
2021/06/25 11:42:15;;;;;;;9.20;6.88;;;21.00;61.70;;;;;;5013250;28;20030;-45
2021/06/25 11:44:43;;;;;;;9.88;6.35;;;21.00;61.70;;;;;;5014336;28;20041;-45
2021/06/25 11:47:22;;;;;;;8.00;6.00;;;21.10;62.60;;;;;;5012642;28;20133;-45
2021/06/25 11:50:01;;;;;;;9.50;6.25;;;21.00;61.80;;;;;;5014351;28;20082;-44
2021/06/25 11:52:35;;;;;;;8.13;6.35;;;21.00;61.80;;;;;;5013989;28;20480;-45
2021/06/25 11:55:08;;;;;;;10.60;6.35;;;21.00;61.90;;;;;;5012597;28;20030;-45
2021/06/25 11:57:36;;;;;;;9.40;6.22;;;21.00;61.90;;;;;;5014009;28;20092;-46
2021/06/25 12:00:17;;;;;;;8.95;6.70;;;21.00;61.90;;;;;;5013879;28;20034;-46
2021/06/25 12:02:49;;;;;;;12.65;7.07;;;20.90;61.80;;;;;;5013781;28;20018;-45
2021/06/25 12:05:32;;;;;;;9.68;6.43;;;21.00;82.30;;;;;;5014018;28;20037;-45
2021/06/25 12:08:11;;;;;;;10.48;6.75;;;21.00;62.00;;;;;;5013751;28;20109;-46
2021/06/25 12:10:38;;;;;;;7.57;6.55;;;21.00;62.10;;;;;;5013661;28;20460;-46
2021/06/25 12:13:04;;;;;;;10.75;7.88;;;21.00;62.10;;;;;;5013366;28;20101;-46
2021/06/25 12:15:30;;;;;;;11.05;7.38;;;20.90;62.20;;;;;;5012264;28;20120;-47
2021/06/25 12:17:57;;;;;;;12.60;8.45;;;20.90;62.10;;;;;;5012171;28;20445;-45
2021/06/25 12:20:28;;;;;;;12.40;8.40;;;21.00;62.20;;;;;;5013691;28;20065;-45
2021/06/25 12:23:02;;;;;;;12.98;8.13;;;21.00;62.30;;;;;;5013711;28;20121;-46
2021/06/25 12:25:41;;;;;;;11.60;8.52;;;21.00;62.20;;;;;;5013655;28;20033;-45
2021/06/25 12:28:13;;;;;;;10.00;7.32;;;21.00;62.30;;;;;;5013410;28;20108;-45
2021/06/25 12:30:43;;;;;;;9.73;8.02;;;20.90;62.30;;;;;;5013312;28;20497;-45
2021/06/25 12:33:10;;;;;;;16.15;9.23;;;21.00;62.40;;;;;;5013438;28;20034;-45
2021/06/25 12:35:38;;;;;;;13.65;8.65;;;20.90;62.40;;;;;;5013493;28;20105;-44
2021/06/25 12:38:06;;;;;;;11.00;8.27;;;21.20;62.60;;;;;;5013427;28;20025;-45
2021/06/25 12:40:46;;;;;;;16.50;10.68;;;20.90;62.50;;;;;;5013151;28;20038;-44
2021/06/25 12:43:18;;;;;;;13.48;9.68;;;20.90;62.50;;;;;;5013417;28;20026;-44
2021/06/25 12:45:56;;;;;;;13.63;8.82;;;20.90;62.60;;;;;;5011936;28;20042;-45
2021/06/25 12:48:25;;;;;;;18.08;11.15;;;21.00;62.50;;;;;;5013373;28;20030;-44
2021/06/25 12:50:58;;;;;;;14.02;9.57;;;20.90;62.60;;;;;;5013001;28;20026;-44
2021/06/25 12:53:28;;;;;;;15.32;9.30;;;20.90;62.50;;;;;;5013074;28;20456;-45
2021/06/25 12:55:55;;;;;;;14.15;9.07;;;20.90;62.70;;;;;;5011600;28;20472;-46
2021/06/25 12:58:21;;;;;;;13.35;9.65;;;21.20;63.20;;;;;;5013108;28;20099;-44
2021/06/25 13:00:53;;;;;;;12.52;8.60;;;21.00;62.90;;;;;;5013110;28;20038;-45
2021/06/25 13:03:19;;;;;;;13.82;9.20;;;21.00;63.40;;;;;;5011554;28;20037;-44
2021/06/25 13:05:45;;;;;;;12.88;8.70;;;21.10;63.40;;;;;;5012806;28;20385;-47
2021/06/25 13:08:30;;;;;;;10.57;8.80;;;21.10;63.30;;;;;;5012698;28;20021;-44
2021/06/25 13:10:55;;;;;;;11.52;8.65;;;21.20;63.30;;;;;;5012996;28;20447;-45